sensor_id;sensor_type;location;lat;lon;timestamp;temperature;humidity
22917;DHT22;11624;53.250;7.456;2023-03-19T00:02:20;15.62;60.69
22917;DHT22;11624;53.250;7.456;2023-03-19T00:04:52;15.63;60.70
22917;DHT22;11624;53.250;7.456;2023-03-19T00:07:25;15.68;60.60
22917;DHT22;11624;53.250;7.456;2023-03-19T00:09:55;15.57;60.89
22917;DHT22;11624;53.250;7.456;2023-03-19T00:12:29;15.62;60.83
22917;DHT22;11624;53.250;7.456;2023-03-19T00:15:01;15.60;60.86
22917;DHT22;11624;53.250;7.456;2023-03-19T00:17:36;15.58;61.03
22917;DHT22;11624;53.250;7.456;2023-03-19T00:20:22;15.59;60.72
22917;DHT22;11624;53.250;7.456;2023-03-19T00:22:52;15.74;60.68
22917;DHT22;11624;53.250;7.456;2023-03-19T00:25:30;15.77;60.60
22917;DHT22;11624;53.250;7.456;2023-03-19T00:28:08;15.81;60.45
22917;DHT22;11624;53.250;7.456;2023-03-19T00:31:05;15.83;60.45
22917;DHT22;11624;53.250;7.456;2023-03-19T00:33:44;15.87;60.35
22917;DHT22;11624;53.250;7.456;2023-03-19T00:36:18;15.83;60.25
22917;DHT22;11624;53.250;7.456;2023-03-19T00:38:55;15.77;60.70
22917;DHT22;11624;53.250;7.456;2023-03-19T00:41:28;15.75;60.72
22917;DHT22;11624;53.250;7.456;2023-03-19T00:44:09;15.76;60.44
22917;DHT22;11624;53.250;7.456;2023-03-19T00:46:42;15.77;60.60
22917;DHT22;11624;53.250;7.456;2023-03-19T00:49:19;15.76;60.32
22917;DHT22;11624;53.250;7.456;2023-03-19T00:51:53;15.74;60.35
22917;DHT22;11624;53.250;7.456;2023-03-19T00:54:34;15.72;60.56
22917;DHT22;11624;53.250;7.456;2023-03-19T00:57:05;15.75;60.60
22917;DHT22;11624;53.250;7.456;2023-03-19T00:59:41;15.78;60.42
22917;DHT22;11624;53.250;7.456;2023-03-19T01:02:26;15.77;60.46
22917;DHT22;11624;53.250;7.456;2023-03-19T01:05:01;15.83;60.35
22917;DHT22;11624;53.250;7.456;2023-03-19T01:07:40;15.83;60.07
22917;DHT22;11624;53.250;7.456;2023-03-19T01:10:24;15.84;59.97
22917;DHT22;11624;53.250;7.456;2023-03-19T01:13:00;15.85;60.11
22917;DHT22;11624;53.250;7.456;2023-03-19T01:15:36;15.88;60.17
22917;DHT22;11624;53.250;7.456;2023-03-19T01:18:20;15.80;59.94
22917;DHT22;11624;53.250;7.456;2023-03-19T01:20:55;15.87;60.22
22917;DHT22;11624;53.250;7.456;2023-03-19T01:23:48;15.90;59.83
22917;DHT22;11624;53.250;7.456;2023-03-19T01:26:27;15.96;59.99
22917;DHT22;11624;53.250;7.456;2023-03-19T01:29:16;16.02;59.78
22917;DHT22;11624;53.250;7.456;2023-03-19T01:31:53;16.01;59.80
22917;DHT22;11624;53.250;7.456;2023-03-19T01:35:08;15.89;59.61
22917;DHT22;11624;53.250;7.456;2023-03-19T01:38:00;15.85;59.79
22917;DHT22;11624;53.250;7.456;2023-03-19T01:40:47;15.88;59.73
22917;DHT22;11624;53.250;7.456;2023-03-19T01:43:28;15.93;59.83
22917;DHT22;11624;53.250;7.456;2023-03-19T01:46:43;15.93;59.73
22917;DHT22;11624;53.250;7.456;2023-03-19T01:49:34;15.97;59.88
22917;DHT22;11624;53.250;7.456;2023-03-19T01:52:15;15.98;59.87
22917;DHT22;11624;53.250;7.456;2023-03-19T01:55:04;15.99;59.83
22917;DHT22;11624;53.250;7.456;2023-03-19T01:57:50;15.97;59.89
22917;DHT22;11624;53.250;7.456;2023-03-19T02:00:37;15.93;59.99
22917;DHT22;11624;53.250;7.456;2023-03-19T02:03:06;16.02;59.77
22917;DHT22;11624;53.250;7.456;2023-03-19T02:05:51;16.02;59.73
22917;DHT22;11624;53.250;7.456;2023-03-19T02:08:22;16.02;59.73
22917;DHT22;11624;53.250;7.456;2023-03-19T02:10:52;16.05;59.69
22917;DHT22;11624;53.250;7.456;2023-03-19T02:13:23;16.04;59.69
22917;DHT22;11624;53.250;7.456;2023-03-19T02:15:51;16.07;59.57
22917;DHT22;11624;53.250;7.456;2023-03-19T02:18:20;16.02;59.73
22917;DHT22;11624;53.250;7.456;2023-03-19T02:20:51;16.02;59.67
22917;DHT22;11624;53.250;7.456;2023-03-19T02:23:29;15.96;59.54
22917;DHT22;11624;53.250;7.456;2023-03-19T02:26:09;15.97;59.68
22917;DHT22;11624;53.250;7.456;2023-03-19T02:28:40;16.06;59.52
22917;DHT22;11624;53.250;7.456;2023-03-19T02:31:12;16.06;59.55
22917;DHT22;11624;53.250;7.456;2023-03-19T02:33:40;16.06;59.50
22917;DHT22;11624;53.250;7.456;2023-03-19T02:36:13;16.01;59.48
22917;DHT22;11624;53.250;7.456;2023-03-19T02:38:42;16.07;59.54
22917;DHT22;11624;53.250;7.456;2023-03-19T02:41:13;16.04;59.65
22917;DHT22;11624;53.250;7.456;2023-03-19T02:43:41;16.11;59.51
22917;DHT22;11624;53.250;7.456;2023-03-19T02:46:11;16.08;59.51
22917;DHT22;11624;53.250;7.456;2023-03-19T02:48:40;16.12;59.44
22917;DHT22;11624;53.250;7.456;2023-03-19T02:51:08;16.10;59.50
22917;DHT22;11624;53.250;7.456;2023-03-19T02:53:36;16.04;59.58
22917;DHT22;11624;53.250;7.456;2023-03-19T02:56:04;16.05;59.55
22917;DHT22;11624;53.250;7.456;2023-03-19T02:58:34;16.06;59.55
22917;DHT22;11624;53.250;7.456;2023-03-19T03:01:02;16.12;59.48
22917;DHT22;11624;53.250;7.456;2023-03-19T03:03:32;16.14;59.38
22917;DHT22;11624;53.250;7.456;2023-03-19T03:06:00;16.14;59.35
22917;DHT22;11624;53.250;7.456;2023-03-19T03:08:28;16.13;59.44
22917;DHT22;11624;53.250;7.456;2023-03-19T03:10:56;16.15;59.41
22917;DHT22;11624;53.250;7.456;2023-03-19T03:13:24;16.15;59.37
22917;DHT22;11624;53.250;7.456;2023-03-19T03:15:54;16.08;59.67
22917;DHT22;11624;53.250;7.456;2023-03-19T03:18:23;16.13;59.60
22917;DHT22;11624;53.250;7.456;2023-03-19T03:20:51;16.17;59.44
22917;DHT22;11624;53.250;7.456;2023-03-19T03:23:19;16.16;59.51
22917;DHT22;11624;53.250;7.456;2023-03-19T03:25:48;16.20;59.40
22917;DHT22;11624;53.250;7.456;2023-03-19T03:28:17;16.17;59.41
22917;DHT22;11624;53.250;7.456;2023-03-19T03:30:46;16.21;59.36
22917;DHT22;11624;53.250;7.456;2023-03-19T03:33:16;16.24;59.26
22917;DHT22;11624;53.250;7.456;2023-03-19T03:35:44;16.24;59.28
22917;DHT22;11624;53.250;7.456;2023-03-19T03:38:12;16.22;59.32
22917;DHT22;11624;53.250;7.456;2023-03-19T03:40:41;16.20;59.39
22917;DHT22;11624;53.250;7.456;2023-03-19T03:43:09;16.30;59.09
22917;DHT22;11624;53.250;7.456;2023-03-19T03:45:37;16.27;59.16
22917;DHT22;11624;53.250;7.456;2023-03-19T03:48:05;16.30;59.08
22917;DHT22;11624;53.250;7.456;2023-03-19T03:50:35;16.30;59.06
22917;DHT22;11624;53.250;7.456;2023-03-19T03:53:07;16.34;58.99
22917;DHT22;11624;53.250;7.456;2023-03-19T03:55:35;16.31;58.97
22917;DHT22;11624;53.250;7.456;2023-03-19T03:58:04;16.28;59.10
22917;DHT22;11624;53.250;7.456;2023-03-19T04:00:32;16.30;58.96
22917;DHT22;11624;53.250;7.456;2023-03-19T04:03:01;16.27;59.09
22917;DHT22;11624;53.250;7.456;2023-03-19T04:05:29;16.19;59.22
22917;DHT22;11624;53.250;7.456;2023-03-19T04:07:59;16.22;59.18
22917;DHT22;11624;53.250;7.456;2023-03-19T04:10:29;16.21;59.14
22917;DHT22;11624;53.250;7.456;2023-03-19T04:12:57;16.27;59.03
22917;DHT22;11624;53.250;7.456;2023-03-19T04:15:27;16.25;58.96
22917;DHT22;11624;53.250;7.456;2023-03-19T04:17:56;16.22;59.04
22917;DHT22;11624;53.250;7.456;2023-03-19T04:20:25;16.27;58.90
22917;DHT22;11624;53.250;7.456;2023-03-19T04:22:53;16.25;58.99
22917;DHT22;11624;53.250;7.456;2023-03-19T04:25:22;16.25;58.87
22917;DHT22;11624;53.250;7.456;2023-03-19T04:27:51;16.26;58.82
22917;DHT22;11624;53.250;7.456;2023-03-19T04:30:19;16.22;58.89
22917;DHT22;11624;53.250;7.456;2023-03-19T04:32:48;16.17;59.08
22917;DHT22;11624;53.250;7.456;2023-03-19T04:35:16;16.10;59.32
22917;DHT22;11624;53.250;7.456;2023-03-19T04:37:44;16.12;59.19
22917;DHT22;11624;53.250;7.456;2023-03-19T04:40:17;16.12;59.09
22917;DHT22;11624;53.250;7.456;2023-03-19T04:42:47;16.17;58.90
22917;DHT22;11624;53.250;7.456;2023-03-19T04:45:31;16.19;58.80
22917;DHT22;11624;53.250;7.456;2023-03-19T04:47:59;16.18;58.73
22917;DHT22;11624;53.250;7.456;2023-03-19T04:50:31;16.12;58.88
22917;DHT22;11624;53.250;7.456;2023-03-19T04:53:01;16.10;58.94
22917;DHT22;11624;53.250;7.456;2023-03-19T04:55:29;16.06;58.98
22917;DHT22;11624;53.250;7.456;2023-03-19T04:58:14;16.02;59.05
22917;DHT22;11624;53.250;7.456;2023-03-19T05:00:43;16.03;59.03
22917;DHT22;11624;53.250;7.456;2023-03-19T05:03:17;15.93;59.30
22917;DHT22;11624;53.250;7.456;2023-03-19T05:05:46;15.97;59.32
22917;DHT22;11624;53.250;7.456;2023-03-19T05:08:14;16.04;59.21
22917;DHT22;11624;53.250;7.456;2023-03-19T05:10:42;16.05;59.23
22917;DHT22;11624;53.250;7.456;2023-03-19T05:13:11;16.12;59.07
22917;DHT22;11624;53.250;7.456;2023-03-19T05:15:46;16.14;58.99
22917;DHT22;11624;53.250;7.456;2023-03-19T05:18:14;16.16;58.99
22917;DHT22;11624;53.250;7.456;2023-03-19T05:20:43;16.19;58.96
22917;DHT22;11624;53.250;7.456;2023-03-19T05:23:17;16.21;58.96
22917;DHT22;11624;53.250;7.456;2023-03-19T05:26:06;16.24;58.84
22917;DHT22;11624;53.250;7.456;2023-03-19T05:29:04;16.22;58.89
22917;DHT22;11624;53.250;7.456;2023-03-19T05:31:50;16.20;58.88
22917;DHT22;11624;53.250;7.456;2023-03-19T05:34:19;16.26;58.81
22917;DHT22;11624;53.250;7.456;2023-03-19T05:36:47;16.27;58.76
22917;DHT22;11624;53.250;7.456;2023-03-19T05:39:17;16.29;58.70
22917;DHT22;11624;53.250;7.456;2023-03-19T05:41:46;16.29;58.69
22917;DHT22;11624;53.250;7.456;2023-03-19T05:44:18;16.21;58.80
22917;DHT22;11624;53.250;7.456;2023-03-19T05:46:58;16.27;58.67
22917;DHT22;11624;53.250;7.456;2023-03-19T05:49:30;16.27;58.64
22917;DHT22;11624;53.250;7.456;2023-03-19T05:51:58;16.25;58.67
22917;DHT22;11624;53.250;7.456;2023-03-19T05:54:26;16.31;58.55
22917;DHT22;11624;53.250;7.456;2023-03-19T05:57:12;16.26;58.66
22917;DHT22;11624;53.250;7.456;2023-03-19T06:00:00;16.33;58.54
22917;DHT22;11624;53.250;7.456;2023-03-19T06:02:33;16.33;58.54
22917;DHT22;11624;53.250;7.456;2023-03-19T06:05:15;16.35;58.51
22917;DHT22;11624;53.250;7.456;2023-03-19T06:07:43;16.32;58.59
22917;DHT22;11624;53.250;7.456;2023-03-19T06:10:20;16.39;58.45
22917;DHT22;11624;53.250;7.456;2023-03-19T06:12:52;16.37;58.41
22917;DHT22;11624;53.250;7.456;2023-03-19T06:15:42;16.40;58.31
22917;DHT22;11624;53.250;7.456;2023-03-19T06:18:20;16.37;58.40
22917;DHT22;11624;53.250;7.456;2023-03-19T06:20:49;16.43;58.37
22917;DHT22;11624;53.250;7.456;2023-03-19T06:23:17;16.44;58.38
22917;DHT22;11624;53.250;7.456;2023-03-19T06:25:45;16.51;58.33
22917;DHT22;11624;53.250;7.456;2023-03-19T06:28:14;16.54;58.31
22917;DHT22;11624;53.250;7.456;2023-03-19T06:30:44;16.61;58.15
22917;DHT22;11624;53.250;7.456;2023-03-19T06:33:39;16.62;58.12
22917;DHT22;11624;53.250;7.456;2023-03-19T06:36:08;16.65;58.06
22917;DHT22;11624;53.250;7.456;2023-03-19T06:38:36;16.64;58.06
22917;DHT22;11624;53.250;7.456;2023-03-19T06:41:04;16.62;57.99
22917;DHT22;11624;53.250;7.456;2023-03-19T06:43:32;16.65;57.93
22917;DHT22;11624;53.250;7.456;2023-03-19T06:46:03;16.65;57.87
22917;DHT22;11624;53.250;7.456;2023-03-19T06:48:35;16.66;57.93
22917;DHT22;11624;53.250;7.456;2023-03-19T06:51:05;16.69;57.74
22917;DHT22;11624;53.250;7.456;2023-03-19T06:53:33;16.63;57.97
22917;DHT22;11624;53.250;7.456;2023-03-19T06:56:02;16.63;58.01
22917;DHT22;11624;53.250;7.456;2023-03-19T06:58:30;16.69;58.05
22917;DHT22;11624;53.250;7.456;2023-03-19T07:00:58;16.76;57.91
22917;DHT22;11624;53.250;7.456;2023-03-19T07:03:27;16.82;58.02
22917;DHT22;11624;53.250;7.456;2023-03-19T07:05:55;16.92;57.98
22917;DHT22;11624;53.250;7.456;2023-03-19T07:08:24;16.98;57.91
22917;DHT22;11624;53.250;7.456;2023-03-19T07:10:55;17.02;57.89
22917;DHT22;11624;53.250;7.456;2023-03-19T07:13:24;17.04;57.74
22917;DHT22;11624;53.250;7.456;2023-03-19T07:15:52;17.10;57.74
22917;DHT22;11624;53.250;7.456;2023-03-19T07:18:20;17.16;57.80
22917;DHT22;11624;53.250;7.456;2023-03-19T07:20:48;17.23;57.80
22917;DHT22;11624;53.250;7.456;2023-03-19T07:23:16;17.34;57.59
22917;DHT22;11624;53.250;7.456;2023-03-19T07:25:45;17.36;57.48
22917;DHT22;11624;53.250;7.456;2023-03-19T07:28:14;17.38;57.47
22917;DHT22;11624;53.250;7.456;2023-03-19T07:30:42;17.44;57.37
22917;DHT22;11624;53.250;7.456;2023-03-19T07:33:10;17.46;57.27
22917;DHT22;11624;53.250;7.456;2023-03-19T07:35:38;17.53;57.25
22917;DHT22;11624;53.250;7.456;2023-03-19T07:38:07;17.52;56.98
22917;DHT22;11624;53.250;7.456;2023-03-19T07:40:35;17.59;56.86
22917;DHT22;11624;53.250;7.456;2023-03-19T07:43:08;17.66;56.69
22917;DHT22;11624;53.250;7.456;2023-03-19T07:45:36;17.70;56.58
22917;DHT22;11624;53.250;7.456;2023-03-19T07:48:05;17.76;56.60
22917;DHT22;11624;53.250;7.456;2023-03-19T07:50:33;17.76;56.37
22917;DHT22;11624;53.250;7.456;2023-03-19T07:53:02;17.77;56.27
22917;DHT22;11624;53.250;7.456;2023-03-19T07:55:30;17.74;56.29
22917;DHT22;11624;53.250;7.456;2023-03-19T07:57:58;17.70;56.44
22917;DHT22;11624;53.250;7.456;2023-03-19T08:00:28;17.75;56.10
22917;DHT22;11624;53.250;7.456;2023-03-19T08:02:56;17.72;56.14
22917;DHT22;11624;53.250;7.456;2023-03-19T08:05:24;17.68;56.19
22917;DHT22;11624;53.250;7.456;2023-03-19T08:07:52;17.69;56.60
22917;DHT22;11624;53.250;7.456;2023-03-19T08:10:21;17.75;56.67
22917;DHT22;11624;53.250;7.456;2023-03-19T08:12:49;17.81;56.48
22917;DHT22;11624;53.250;7.456;2023-03-19T08:15:17;17.73;56.47
22917;DHT22;11624;53.250;7.456;2023-03-19T08:17:46;17.67;56.52
22917;DHT22;11624;53.250;7.456;2023-03-19T08:20:15;17.73;56.55
22917;DHT22;11624;53.250;7.456;2023-03-19T08:22:47;17.70;56.48
22917;DHT22;11624;53.250;7.456;2023-03-19T08:25:16;17.80;56.72
22917;DHT22;11624;53.250;7.456;2023-03-19T08:27:44;17.84;56.48
22917;DHT22;11624;53.250;7.456;2023-03-19T08:30:12;17.89;56.44
22917;DHT22;11624;53.250;7.456;2023-03-19T08:32:40;18.02;56.35
22917;DHT22;11624;53.250;7.456;2023-03-19T08:35:12;18.08;56.38
22917;DHT22;11624;53.250;7.456;2023-03-19T08:37:41;18.27;56.26
22917;DHT22;11624;53.250;7.456;2023-03-19T08:40:10;18.42;56.01
22917;DHT22;11624;53.250;7.456;2023-03-19T08:42:38;18.56;55.74
22917;DHT22;11624;53.250;7.456;2023-03-19T08:45:13;18.65;54.95
22917;DHT22;11624;53.250;7.456;2023-03-19T08:47:42;18.63;54.89
22917;DHT22;11624;53.250;7.456;2023-03-19T08:50:11;18.57;54.59
22917;DHT22;11624;53.250;7.456;2023-03-19T08:52:40;18.50;54.87
22917;DHT22;11624;53.250;7.456;2023-03-19T08:55:08;18.46;54.68
22917;DHT22;11624;53.250;7.456;2023-03-19T08:57:37;18.44;54.94
22917;DHT22;11624;53.250;7.456;2023-03-19T09:00:06;18.42;54.88
22917;DHT22;11624;53.250;7.456;2023-03-19T09:02:35;18.51;55.11
22917;DHT22;11624;53.250;7.456;2023-03-19T09:05:03;18.62;55.10
22917;DHT22;11624;53.250;7.456;2023-03-19T09:07:33;18.58;54.22
22917;DHT22;11624;53.250;7.456;2023-03-19T09:10:01;18.56;54.05
22917;DHT22;11624;53.250;7.456;2023-03-19T09:12:29;18.51;54.13
22917;DHT22;11624;53.250;7.456;2023-03-19T09:14:57;18.61;54.27
22917;DHT22;11624;53.250;7.456;2023-03-19T09:17:25;18.62;54.13
22917;DHT22;11624;53.250;7.456;2023-03-19T09:19:53;18.62;53.50
22917;DHT22;11624;53.250;7.456;2023-03-19T09:22:21;18.53;53.52
22917;DHT22;11624;53.250;7.456;2023-03-19T09:24:50;18.67;53.67
22917;DHT22;11624;53.250;7.456;2023-03-19T09:27:18;18.65;53.17
22917;DHT22;11624;53.250;7.456;2023-03-19T09:29:47;18.64;53.22
22917;DHT22;11624;53.250;7.456;2023-03-19T09:32:15;18.69;53.34
22917;DHT22;11624;53.250;7.456;2023-03-19T09:34:43;18.78;53.12
22917;DHT22;11624;53.250;7.456;2023-03-19T09:37:12;18.86;52.61
22917;DHT22;11624;53.250;7.456;2023-03-19T09:39:40;18.87;52.77
22917;DHT22;11624;53.250;7.456;2023-03-19T09:42:18;18.89;52.17
22917;DHT22;11624;53.250;7.456;2023-03-19T09:44:49;18.82;51.79
22917;DHT22;11624;53.250;7.456;2023-03-19T09:47:25;18.83;52.16
22917;DHT22;11624;53.250;7.456;2023-03-19T09:49:55;18.94;51.53
22917;DHT22;11624;53.250;7.456;2023-03-19T09:52:33;19.00;51.22
22917;DHT22;11624;53.250;7.456;2023-03-19T09:55:10;19.21;51.50
22917;DHT22;11624;53.250;7.456;2023-03-19T09:57:41;19.35;51.31
22917;DHT22;11624;53.250;7.456;2023-03-19T10:00:20;19.45;51.09
22917;DHT22;11624;53.250;7.456;2023-03-19T10:02:53;19.59;50.72
22917;DHT22;11624;53.250;7.456;2023-03-19T10:05:28;19.62;50.29
22917;DHT22;11624;53.250;7.456;2023-03-19T10:08:15;19.58;49.90
22917;DHT22;11624;53.250;7.456;2023-03-19T10:10:53;19.39;50.88
22917;DHT22;11624;53.250;7.456;2023-03-19T10:13:35;19.62;49.41
22917;DHT22;11624;53.250;7.456;2023-03-19T10:16:12;19.60;48.76
22917;DHT22;11624;53.250;7.456;2023-03-19T10:18:46;19.66;48.86
22917;DHT22;11624;53.250;7.456;2023-03-19T10:21:19;19.77;48.98
22917;DHT22;11624;53.250;7.456;2023-03-19T10:23:52;19.91;48.96
22917;DHT22;11624;53.250;7.456;2023-03-19T10:26:27;20.03;49.33
22917;DHT22;11624;53.250;7.456;2023-03-19T10:29:03;20.61;50.11
22917;DHT22;11624;53.250;7.456;2023-03-19T10:31:41;21.33;46.44
22917;DHT22;11624;53.250;7.456;2023-03-19T10:34:22;21.33;44.77
22917;DHT22;11624;53.250;7.456;2023-03-19T10:36:58;21.34;45.15
22917;DHT22;11624;53.250;7.456;2023-03-19T10:39:27;21.10;44.64
22917;DHT22;11624;53.250;7.456;2023-03-19T10:42:04;21.04;44.11
22917;DHT22;11624;53.250;7.456;2023-03-19T10:44:38;21.09;44.93
22917;DHT22;11624;53.250;7.456;2023-03-19T10:47:12;20.92;43.94
22917;DHT22;11624;53.250;7.456;2023-03-19T10:49:41;20.77;44.04
22917;DHT22;11624;53.250;7.456;2023-03-19T10:52:17;20.75;44.45
22917;DHT22;11624;53.250;7.456;2023-03-19T10:54:47;20.93;44.67
22917;DHT22;11624;53.250;7.456;2023-03-19T10:57:22;20.98;43.56
22917;DHT22;11624;53.250;7.456;2023-03-19T10:59:52;21.10;43.19
22917;DHT22;11624;53.250;7.456;2023-03-19T11:02:21;21.11;43.28
22917;DHT22;11624;53.250;7.456;2023-03-19T11:05:06;21.17;43.48
22917;DHT22;11624;53.250;7.456;2023-03-19T11:07:36;21.17;43.04
22917;DHT22;11624;53.250;7.456;2023-03-19T11:10:11;21.21;43.01
22917;DHT22;11624;53.250;7.456;2023-03-19T11:12:40;21.47;42.05
22917;DHT22;11624;53.250;7.456;2023-03-19T11:15:19;21.69;41.61
22917;DHT22;11624;53.250;7.456;2023-03-19T11:17:54;21.89;41.22
22917;DHT22;11624;53.250;7.456;2023-03-19T11:20:28;22.13;39.78
22917;DHT22;11624;53.250;7.456;2023-03-19T11:22:59;22.14;39.73
22917;DHT22;11624;53.250;7.456;2023-03-19T11:25:30;22.07;40.48
22917;DHT22;11624;53.250;7.456;2023-03-19T11:28:04;22.19;40.72
22917;DHT22;11624;53.250;7.456;2023-03-19T11:30:41;22.29;39.88
22917;DHT22;11624;53.250;7.456;2023-03-19T11:33:25;22.43;40.26
22917;DHT22;11624;53.250;7.456;2023-03-19T11:36:00;23.24;40.71
22917;DHT22;11624;53.250;7.456;2023-03-19T11:38:37;24.17;38.15
22917;DHT22;11624;53.250;7.456;2023-03-19T11:41:13;24.88;35.11
22917;DHT22;11624;53.250;7.456;2023-03-19T11:43:50;24.71;33.63
22917;DHT22;11624;53.250;7.456;2023-03-19T11:46:33;24.42;34.39
22917;DHT22;11624;53.250;7.456;2023-03-19T11:49:33;23.91;34.68
22917;DHT22;11624;53.250;7.456;2023-03-19T11:52:10;23.30;36.19
22917;DHT22;11624;53.250;7.456;2023-03-19T11:54:45;23.13;36.93
22917;DHT22;11624;53.250;7.456;2023-03-19T11:57:22;22.91;37.58
22917;DHT22;11624;53.250;7.456;2023-03-19T12:03:23;23.46;36.77
22917;DHT22;11624;53.250;7.456;2023-03-19T12:05:55;23.84;36.75
22917;DHT22;11624;53.250;7.456;2023-03-19T12:08:33;24.48;35.87
22917;DHT22;11624;53.250;7.456;2023-03-19T12:11:11;24.99;34.69
22917;DHT22;11624;53.250;7.456;2023-03-19T12:13:54;25.61;33.12
22917;DHT22;11624;53.250;7.456;2023-03-19T12:16:36;25.89;32.02
22917;DHT22;11624;53.250;7.456;2023-03-19T12:19:32;26.04;31.84
22917;DHT22;11624;53.250;7.456;2023-03-19T12:22:11;25.91;31.47
22917;DHT22;11624;53.250;7.456;2023-03-19T12:24:57;25.45;31.92
22917;DHT22;11624;53.250;7.456;2023-03-19T12:27:34;24.99;34.15
22917;DHT22;11624;53.250;7.456;2023-03-19T12:30:12;25.16;34.00
22917;DHT22;11624;53.250;7.456;2023-03-19T12:32:57;25.05;34.17
22917;DHT22;11624;53.250;7.456;2023-03-19T12:35:33;24.68;34.05
22917;DHT22;11624;53.250;7.456;2023-03-19T12:38:07;24.49;34.53
22917;DHT22;11624;53.250;7.456;2023-03-19T12:40:40;24.28;35.13
22917;DHT22;11624;53.250;7.456;2023-03-19T12:43:17;24.12;35.57
22917;DHT22;11624;53.250;7.456;2023-03-19T12:45:46;23.95;36.85
22917;DHT22;11624;53.250;7.456;2023-03-19T12:48:18;23.76;36.11
22917;DHT22;11624;53.250;7.456;2023-03-19T12:50:51;23.44;36.05
22917;DHT22;11624;53.250;7.456;2023-03-19T12:53:29;23.07;36.42
22917;DHT22;11624;53.250;7.456;2023-03-19T12:56:01;22.79;37.69
22917;DHT22;11624;53.250;7.456;2023-03-19T12:58:37;22.73;38.35
22917;DHT22;11624;53.250;7.456;2023-03-19T13:01:11;22.78;38.62
22917;DHT22;11624;53.250;7.456;2023-03-19T13:03:45;22.80;38.81
22917;DHT22;11624;53.250;7.456;2023-03-19T13:06:20;22.94;39.02
22917;DHT22;11624;53.250;7.456;2023-03-19T13:08:54;23.15;38.64
22917;DHT22;11624;53.250;7.456;2023-03-19T13:11:33;23.43;39.20
22917;DHT22;11624;53.250;7.456;2023-03-19T13:14:07;24.20;38.50
22917;DHT22;11624;53.250;7.456;2023-03-19T13:16:41;24.69;36.03
22917;DHT22;11624;53.250;7.456;2023-03-19T13:19:17;25.17;33.21
22917;DHT22;11624;53.250;7.456;2023-03-19T13:21:52;25.45;33.66
22917;DHT22;11624;53.250;7.456;2023-03-19T13:24:24;26.04;32.41
22917;DHT22;11624;53.250;7.456;2023-03-19T13:26:54;26.16;31.16
22917;DHT22;11624;53.250;7.456;2023-03-19T13:29:24;25.72;31.99
22917;DHT22;11624;53.250;7.456;2023-03-19T13:31:59;25.18;32.54
22917;DHT22;11624;53.250;7.456;2023-03-19T13:34:30;24.50;34.47
22917;DHT22;11624;53.250;7.456;2023-03-19T13:37:04;24.50;34.70
22917;DHT22;11624;53.250;7.456;2023-03-19T13:39:35;24.80;35.17
22917;DHT22;11624;53.250;7.456;2023-03-19T13:42:22;25.00;33.79
22917;DHT22;11624;53.250;7.456;2023-03-19T13:44:51;24.91;34.76
22917;DHT22;11624;53.250;7.456;2023-03-19T13:47:39;25.23;33.03
22917;DHT22;11624;53.250;7.456;2023-03-19T13:52:48;25.92;33.24
22917;DHT22;11624;53.250;7.456;2023-03-19T13:55:31;26.49;31.18
22917;DHT22;11624;53.250;7.456;2023-03-19T13:58:12;26.62;30.74
22917;DHT22;11624;53.250;7.456;2023-03-19T14:00:58;26.53;29.90
22917;DHT22;11624;53.250;7.456;2023-03-19T14:03:28;26.64;30.51
22917;DHT22;11624;53.250;7.456;2023-03-19T14:05:58;26.16;30.24
22917;DHT22;11624;53.250;7.456;2023-03-19T14:08:32;25.42;31.83
22917;DHT22;11624;53.250;7.456;2023-03-19T14:11:01;24.89;32.79
22917;DHT22;11624;53.250;7.456;2023-03-19T14:13:33;24.49;33.68
22917;DHT22;11624;53.250;7.456;2023-03-19T14:16:09;24.24;34.83
22917;DHT22;11624;53.250;7.456;2023-03-19T14:18:41;24.16;35.21
22917;DHT22;11624;53.250;7.456;2023-03-19T14:21:13;24.00;35.08
22917;DHT22;11624;53.250;7.456;2023-03-19T14:23:54;23.73;35.54
22917;DHT22;11624;53.250;7.456;2023-03-19T14:26:24;23.46;36.62
22917;DHT22;11624;53.250;7.456;2023-03-19T14:28:58;23.22;37.18
22917;DHT22;11624;53.250;7.456;2023-03-19T14:31:36;22.95;38.02
22917;DHT22;11624;53.250;7.456;2023-03-19T14:34:17;22.84;38.30
22917;DHT22;11624;53.250;7.456;2023-03-19T14:36:52;22.80;38.90
22917;DHT22;11624;53.250;7.456;2023-03-19T14:39:25;23.18;38.66
22917;DHT22;11624;53.250;7.456;2023-03-19T14:42:02;23.40;37.27
22917;DHT22;11624;53.250;7.456;2023-03-19T14:50:58;23.54;38.01
22917;DHT22;11624;53.250;7.456;2023-03-19T14:53:34;23.58;37.75
22917;DHT22;11624;53.250;7.456;2023-03-19T14:56:12;23.91;37.72
22917;DHT22;11624;53.250;7.456;2023-03-19T14:58:49;24.14;37.39
22917;DHT22;11624;53.250;7.456;2023-03-19T15:01:18;24.31;36.72
22917;DHT22;11624;53.250;7.456;2023-03-19T15:03:52;24.40;36.00
22917;DHT22;11624;53.250;7.456;2023-03-19T15:06:21;24.21;36.27
22917;DHT22;11624;53.250;7.456;2023-03-19T15:08:50;23.89;37.18
22917;DHT22;11624;53.250;7.456;2023-03-19T15:11:37;23.70;37.55
22917;DHT22;11624;53.250;7.456;2023-03-19T15:14:27;23.58;37.77
22917;DHT22;11624;53.250;7.456;2023-03-19T15:17:04;23.60;37.55
22917;DHT22;11624;53.250;7.456;2023-03-19T15:19:36;23.37;37.94
22917;DHT22;11624;53.250;7.456;2023-03-19T15:22:12;23.05;39.00
22917;DHT22;11624;53.250;7.456;2023-03-19T15:24:40;22.83;39.98
22917;DHT22;11624;53.250;7.456;2023-03-19T15:27:18;22.64;40.95
22917;DHT22;11624;53.250;7.456;2023-03-19T15:29:47;22.76;41.09
22917;DHT22;11624;53.250;7.456;2023-03-19T15:32:30;22.53;41.14
22917;DHT22;11624;53.250;7.456;2023-03-19T15:35:21;22.22;42.05
22917;DHT22;11624;53.250;7.456;2023-03-19T15:37:52;21.98;42.80
22917;DHT22;11624;53.250;7.456;2023-03-19T15:40:24;21.74;43.50
22917;DHT22;11624;53.250;7.456;2023-03-19T15:42:59;21.66;43.87
22917;DHT22;11624;53.250;7.456;2023-03-19T15:45:30;21.66;44.49
22917;DHT22;11624;53.250;7.456;2023-03-19T15:48:03;21.93;44.59
22917;DHT22;11624;53.250;7.456;2023-03-19T15:50:36;22.29;43.75
22917;DHT22;11624;53.250;7.456;2023-03-19T15:53:07;22.56;42.97
22917;DHT22;11624;53.250;7.456;2023-03-19T15:55:37;22.64;42.55
22917;DHT22;11624;53.250;7.456;2023-03-19T15:58:08;22.70;42.42
22917;DHT22;11624;53.250;7.456;2023-03-19T16:00:39;22.78;42.58
22917;DHT22;11624;53.250;7.456;2023-03-19T16:03:12;22.83;41.96
22917;DHT22;11624;53.250;7.456;2023-03-19T16:05:43;22.69;41.60
22917;DHT22;11624;53.250;7.456;2023-03-19T16:08:17;22.60;42.22
22917;DHT22;11624;53.250;7.456;2023-03-19T16:10:46;22.57;42.38
22917;DHT22;11624;53.250;7.456;2023-03-19T16:13:25;22.60;42.31
22917;DHT22;11624;53.250;7.456;2023-03-19T16:15:55;22.67;42.26
22917;DHT22;11624;53.250;7.456;2023-03-19T16:18:25;22.62;41.57
22917;DHT22;11624;53.250;7.456;2023-03-19T16:21:02;22.27;41.78
22917;DHT22;11624;53.250;7.456;2023-03-19T16:23:33;22.03;42.26